Time;durP1;ratioP1;P1;durP2;ratioP2;P2;SDS_P1;SDS_P2;PMS_P1;PMS_P2;Temp;Humidity;BMP_temperature;BMP_pressure;BME280_temperature;BME280_humidity;BME280_pressure;Samples;Min_cycle;Max_cycle;Signal;HPM_P1;HPM_P2
2023/12/07 00:01:37;;;;;;;;;;;;;;;-1.18;100.00;101566.63;5011782;28;19921;-80
2023/12/07 00:04:03;;;;;;;;;;;;;;;-1.24;100.00;101567.91;5012593;28;20020;-80
2023/12/07 00:06:28;;;;;;;;;;;;;;;-1.26;100.00;101571.59;5011097;28;20339;-80
2023/12/07 00:08:53;;;;;;;;;;;;;;;-1.27;100.00;101568.09;5012715;28;19928;-80
2023/12/07 00:11:18;;;;;;;;;;;;;;;-1.34;100.00;101566.81;5011567;28;19928;-80
2023/12/07 00:13:44;;;;;;;;;;;;;;;-1.31;100.00;101561.31;5010624;28;19921;-80
2023/12/07 00:16:09;;;;;;;;;;;;;;;-1.31;100.00;101565.75;5012131;28;19947;-80
2023/12/07 00:18:34;;;;;;;;;;;;;;;-1.34;100.00;101564.19;5012468;28;19922;-80
2023/12/07 01:02:51;;;;;;;;;;;;;;;-2.44;100.00;101571.09;5519136;23;19926;-81
2023/12/07 01:05:16;;;;;;;;;;;;;;;-2.38;100.00;101569.91;5015127;28;19956;-81
2023/12/07 01:07:41;;;;;;;;;;;;;;;-2.35;100.00;101573.19;5016047;28;19925;-81
2023/12/07 01:10:07;;;;;;;;;;;;;;;-2.33;100.00;101571.31;5014996;28;19975;-82
2023/12/07 01:12:32;;;;;;;;;;;;;;;-2.46;100.00;101567.72;5015263;28;20361;-82
2023/12/07 01:14:57;;;;;;;;;;;;;;;-2.24;100.00;101580.44;5015149;28;19945;-81
2023/12/07 01:17:22;;;;;;;;;;;;;;;-2.07;100.00;101581.19;5015815;28;20016;-81
2023/12/07 01:19:48;;;;;;;;;;;;;;;-2.06;100.00;101574.97;5014529;28;19929;-82
2023/12/07 01:22:13;;;;;;;;;;;;;;;-2.09;100.00;101569.88;5016357;28;19982;-82
2023/12/07 01:24:38;;;;;;;;;;;;;;;-2.01;100.00;101573.72;5014916;28;20369;-81
2023/12/07 01:27:04;;;;;;;;;;;;;;;-1.90;100.00;101578.31;5015186;28;19968;-81
2023/12/07 01:29:29;;;;;;;;;;;;;;;-1.83;100.00;101570.84;5015669;28;19928;-82
2023/12/07 01:31:54;;;;;;;;;;;;;;;-1.71;100.00;101579.78;5016018;28;19922;-82
2023/12/07 01:34:19;;;;;;;;;;;;;;;-1.61;100.00;101580.03;5014746;28;19940;-82
2023/12/07 01:36:45;;;;;;;;;;;;;;;-1.58;100.00;101580.69;5014775;28;19922;-82
2023/12/07 01:39:12;;;;;;;;;;;;;;;-1.56;100.00;101580.56;5015562;28;19917;-81
2023/12/07 01:41:38;;;;;;;;;;;;;;;-1.55;100.00;101577.84;5014847;28;20289;-82
2023/12/07 01:44:04;;;;;;;;;;;;;;;-1.61;100.00;101580.03;5013779;28;20190;-82
2023/12/07 01:46:29;;;;;;;;;;;;;;;-1.83;100.00;101576.13;5015976;28;20412;-82
2023/12/07 01:49:00;;;;;;;;;;;;;;;-2.05;100.00;101588.03;5021223;28;19929;-82
2023/12/07 01:51:26;;;;;;;;;;;;;;;-2.19;100.00;101588.06;4997126;28;20010;-82
2023/12/07 01:53:51;;;;;;;;;;;;;;;-2.37;100.00;101584.75;5031436;28;19922;-82
2023/12/07 01:56:16;;;;;;;;;;;;;;;-2.52;100.00;101581.28;5016413;28;19921;-81
2023/12/07 01:58:42;;;;;;;;;;;;;;;-2.68;100.00;101584.88;5016254;28;19929;-83
2023/12/07 02:01:07;;;;;;;;;;;;;;;-2.82;100.00;101587.44;5000927;28;19945;-81
2023/12/07 02:03:32;;;;;;;;;;;;;;;-2.93;100.00;101583.69;5024087;28;20285;-82
2023/12/07 02:05:58;;;;;;;;;;;;;;;-2.96;100.00;101586.47;5029057;28;19910;-82
2023/12/07 02:08:23;;;;;;;;;;;;;;;-2.84;100.00;101590.19;5034779;28;19928;-82
2023/12/07 02:10:48;;;;;;;;;;;;;;;-2.66;100.00;101598.78;5027711;28;20391;-82
2023/12/07 02:13:13;;;;;;;;;;;;;;;-2.67;100.00;101597.09;5017112;28;19926;-82
2023/12/07 02:15:38;;;;;;;;;;;;;;;-2.74;100.00;101601.03;5018864;28;19921;-82
2023/12/07 02:18:16;;;;;;;;;;;;;;;-2.77;100.00;101591.53;4998665;28;19922;-82
2023/12/07 02:20:44;;;;;;;;;;;;;;;-2.60;100.00;101598.41;5016100;28;20257;-82
2023/12/07 02:23:09;;;;;;;;;;;;;;;-2.52;100.00;101597.94;5010843;28;19918;-82
2023/12/07 02:25:44;;;;;;;;;;;;;;;-2.64;100.00;101598.69;4998263;28;19925;-81
2023/12/07 02:28:09;;;;;;;;;;;;;;;-2.72;100.00;101604.44;5013413;28;20402;-82
2023/12/07 02:46:05;;;;;;;;;;;;;;;-3.39;100.00;101594.25;5736239;23;19940;-82
2023/12/07 02:48:31;;;;;;;;;;;;;;;-3.38;100.00;101595.97;4995436;28;19922;-82
2023/12/07 02:50:56;;;;;;;;;;;;;;;-3.44;100.00;101589.22;5013390;28;19944;-83
2023/12/07 02:53:21;;;;;;;;;;;;;;;-3.57;100.00;101586.47;5014616;28;19921;-82
2023/12/07 02:55:49;;;;;;;;;;;;;;;-3.65;100.00;101588.69;5015453;28;19921;-82
2023/12/07 02:58:14;;;;;;;;;;;;;;;-3.68;100.00;101588.84;5016039;28;19963;-82
2023/12/07 03:00:40;;;;;;;;;;;;;;;-3.41;100.00;101586.44;5019755;28;19922;-82
2023/12/07 03:03:08;;;;;;;;;;;;;;;-3.22;100.00;101591.50;5022747;28;19988;-82
2023/12/07 03:05:33;;;;;;;;;;;;;;;-3.09;100.00;101591.63;5024077;28;19940;-82
2023/12/07 03:08:04;;;;;;;;;;;;;;;-2.98;100.00;101592.78;5017300;28;20385;-83
2023/12/07 03:10:29;;;;;;;;;;;;;;;-2.97;100.00;101602.41;5014687;28;20022;-82
2023/12/07 03:12:57;;;;;;;;;;;;;;;-2.83;100.00;101591.06;5013358;28;19957;-83
2023/12/07 03:15:23;;;;;;;;;;;;;;;-2.70;100.00;101588.50;5013346;28;20362;-82
2023/12/07 03:17:49;;;;;;;;;;;;;;;-2.80;100.00;101590.84;5014731;28;19940;-82
2023/12/07 03:22:39;;;;;;;;;;;;;;;-2.95;100.00;101593.44;5020135;23;19926;-83
2023/12/07 03:25:05;;;;;;;;;;;;;;;-3.03;100.00;101595.72;5014077;28;19921;-82
2023/12/07 03:27:30;;;;;;;;;;;;;;;-3.13;100.00;101597.16;5010152;28;19936;-82
2023/12/07 03:29:56;;;;;;;;;;;;;;;-3.04;100.00;101596.66;5016011;28;19928;-81
2023/12/07 03:32:21;;;;;;;;;;;;;;;-3.14;100.00;101603.38;5015319;28;19964;-81
2023/12/07 03:37:21;;;;;;;;;;;;;;;-3.23;100.00;101599.47;5092717;23;19929;-81
2023/12/07 03:39:56;;;;;;;;;;;;;;;-3.35;100.00;101598.41;5013763;28;19995;-81
2023/12/07 03:42:21;;;;;;;;;;;;;;;-3.45;100.00;101599.88;5012021;28;19921;-80
2023/12/07 03:44:58;;;;;;;;;;;;;;;-3.48;100.00;101600.03;5012779;28;19921;-81
2023/12/07 03:47:33;;;;;;;;;;;;;;;-3.56;100.00;101600.47;5012103;28;19921;-80
2023/12/07 03:49:58;;;;;;;;;;;;;;;-3.54;100.00;101602.09;5012706;28;19922;-81
2023/12/07 03:53:02;;;;;;;;;;;;;;;-3.46;100.00;101604.28;5011751;28;19972;-81
2023/12/07 03:55:52;;;;;;;;;;;;;;;-3.53;100.00;101609.03;5008451;28;19933;-80
2023/12/07 04:01:23;;;;;;;;;;;;;;;-3.37;100.00;101611.66;5013400;28;20036;-80
2023/12/07 04:04:22;;;;;;;;;;;;;;;-3.44;100.00;101610.28;5005802;28;20004;-80
2023/12/07 04:06:57;;;;;;;;;;;;;;;-3.45;100.00;101618.28;5012166;28;19988;-80
2023/12/07 04:09:22;;;;;;;;;;;;;;;-3.44;100.00;101612.09;5012852;28;19953;-80
2023/12/07 04:11:50;;;;;;;;;;;;;;;-3.48;100.00;101602.66;5011095;28;20397;-80
2023/12/07 04:14:15;;;;;;;;;;;;;;;-3.53;100.00;101608.19;5013439;28;20034;-80
2023/12/07 04:16:41;;;;;;;;;;;;;;;-3.41;100.00;101604.03;5013127;28;19925;-80
2023/12/07 04:19:06;;;;;;;;;;;;;;;-3.38;100.00;101607.31;5024371;28;20403;-80
2023/12/07 04:21:32;;;;;;;;;;;;;;;-3.28;100.00;101618.19;5012608;28;19921;-80
2023/12/07 04:23:58;;;;;;;;;;;;;;;-3.30;100.00;101627.94;5006069;28;19947;-79
2023/12/07 04:26:23;;;;;;;;;;;;;;;-3.30;100.00;101621.84;5010691;28;19913;-80
2023/12/07 04:28:48;;;;;;;;;;;;;;;-3.30;100.00;101620.06;4994038;28;19927;-80
2023/12/07 04:31:13;;;;;;;;;;;;;;;-3.09;100.00;101619.75;5012360;28;19925;-80
2023/12/07 04:33:39;;;;;;;;;;;;;;;-3.06;100.00;101624.84;5011652;28;20016;-80
2023/12/07 04:36:04;;;;;;;;;;;;;;;-3.14;100.00;101627.94;5011456;28;19936;-79
2023/12/07 04:38:29;;;;;;;;;;;;;;;-3.10;100.00;101624.19;5012029;28;19921;-80
2023/12/07 04:40:57;;;;;;;;;;;;;;;-3.18;100.00;101623.78;5010773;28;19922;-80
2023/12/07 04:43:23;;;;;;;;;;;;;;;-3.22;100.00;101628.38;5172971;23;20441;-80
2023/12/07 04:45:48;;;;;;;;;;;;;;;-3.24;100.00;101632.88;5012895;28;20007;-80
2023/12/07 04:48:16;;;;;;;;;;;;;;;-3.17;100.00;101624.59;5011716;28;19923;-80
2023/12/07 04:50:41;;;;;;;;;;;;;;;-3.23;100.00;101629.31;5012840;28;19999;-80
2023/12/07 04:53:07;;;;;;;;;;;;;;;-3.32;100.00;101629.00;5015052;28;20316;-80
2023/12/07 04:55:35;;;;;;;;;;;;;;;-3.23;100.00;101617.91;5020600;28;19932;-80
2023/12/07 04:58:00;;;;;;;;;;;;;;;-3.09;100.00;101630.28;5012581;28;19927;-80
2023/12/07 05:00:27;;;;;;;;;;;;;;;-3.08;100.00;101630.19;5013074;28;19921;-80
2023/12/07 05:02:52;;;;;;;;;;;;;;;-3.03;100.00;101619.41;5011074;28;20579;-80
2023/12/07 05:05:17;;;;;;;;;;;;;;;-2.96;100.00;101627.81;5009690;28;19983;-80
2023/12/07 05:07:42;;;;;;;;;;;;;;;-2.92;100.00;101629.31;5011811;28;19928;-79
2023/12/07 05:10:09;;;;;;;;;;;;;;;-2.90;100.00;101630.06;5010187;28;19922;-80
2023/12/07 05:12:35;;;;;;;;;;;;;;;-2.91;100.00;101634.50;5011223;28;19928;-80
2023/12/07 05:15:00;;;;;;;;;;;;;;;-2.94;100.00;101637.31;5011288;28;20293;-80
2023/12/07 05:17:26;;;;;;;;;;;;;;;-2.84;100.00;101631.50;5011684;28;20403;-80
2023/12/07 05:19:53;;;;;;;;;;;;;;;-2.92;100.00;101632.78;5011081;28;19933;-80
2023/12/07 05:22:19;;;;;;;;;;;;;;;-2.83;100.00;101639.31;5010923;28;19929;-79
2023/12/07 05:24:47;;;;;;;;;;;;;;;-2.75;100.00;101644.13;5012745;28;20392;-80
2023/12/07 05:27:12;;;;;;;;;;;;;;;-2.78;100.00;101647.81;5011074;28;19945;-80
2023/12/07 05:29:38;;;;;;;;;;;;;;;-2.69;100.00;101642.91;5011760;28;20015;-80
2023/12/07 05:32:04;;;;;;;;;;;;;;;-2.67;100.00;101631.38;5011512;28;19921;-77
2023/12/07 05:34:29;;;;;;;;;;;;;;;-2.72;100.00;101633.41;5011096;28;19921;-75
2023/12/07 05:36:54;;;;;;;;;;;;;;;-2.71;100.00;101634.25;5013244;28;19948;-76
2023/12/07 05:39:20;;;;;;;;;;;;;;;-2.68;100.00;101636.72;5013823;28;20523;-75
2023/12/07 05:41:46;;;;;;;;;;;;;;;-2.60;100.00;101632.69;5017309;28;20029;-76
2023/12/07 05:44:11;;;;;;;;;;;;;;;-2.61;100.00;101633.63;5016250;28;20385;-75
2023/12/07 05:46:38;;;;;;;;;;;;;;;-2.68;100.00;101632.31;5016836;28;19921;-76
2023/12/07 05:49:03;;;;;;;;;;;;;;;-2.70;100.00;101618.38;5017323;28;19922;-76
2023/12/07 05:51:29;;;;;;;;;;;;;;;-2.74;100.00;101622.13;5022935;28;19929;-75
2023/12/07 05:53:57;;;;;;;;;;;;;;;-2.63;100.00;101624.94;5031385;28;19925;-75
2023/12/07 05:56:22;;;;;;;;;;;;;;;-2.55;100.00;101627.13;5031008;28;19922;-76
2023/12/07 05:58:48;;;;;;;;;;;;;;;-2.57;100.00;101622.88;5018349;28;20000;-75
2023/12/07 06:01:16;;;;;;;;;;;;;;;-2.49;100.00;101615.38;5015413;28;20004;-75
2023/12/07 06:03:41;;;;;;;;;;;;;;;-2.40;100.00;101620.09;5014949;28;19918;-76
2023/12/07 06:06:06;;;;;;;;;;;;;;;-2.36;100.00;101618.09;5015426;28;19944;-75
2023/12/07 06:08:31;;;;;;;;;;;;;;;-2.39;100.00;101632.31;5014052;28;19925;-76
2023/12/07 06:10:57;;;;;;;;;;;;;;;-2.26;100.00;101623.66;5013575;28;19924;-77
2023/12/07 06:13:22;;;;;;;;;;;;;;;-2.20;100.00;101620.66;5013553;28;19941;-77
2023/12/07 06:15:47;;;;;;;;;;;;;;;-2.14;100.00;101628.19;5015691;28;20028;-77
2023/12/07 06:18:12;;;;;;;;;;;;;;;-2.05;100.00;101626.78;5014682;28;19952;-77
2023/12/07 06:20:38;;;;;;;;;;;;;;;-2.03;100.00;101622.25;5023497;28;19936;-76
2023/12/07 06:23:03;;;;;;;;;;;;;;;-2.04;100.00;101620.56;5030769;28;20361;-76
2023/12/07 06:25:29;;;;;;;;;;;;;;;-1.96;100.00;101622.72;5032929;23;20020;-77
2023/12/07 06:27:56;;;;;;;;;;;;;;;-1.98;100.00;101634.22;5016657;28;19988;-75
2023/12/07 06:30:21;;;;;;;;;;;;;;;-1.90;100.00;101635.50;5015795;28;19925;-77
2023/12/07 06:32:46;;;;;;;;;;;;;;;-1.92;100.00;101621.56;5013956;28;20435;-75
2023/12/07 06:35:12;;;;;;;;;;;;;;;-2.00;100.00;101630.81;5014623;28;19925;-77
2023/12/07 06:37:37;;;;;;;;;;;;;;;-1.87;100.00;101632.69;5014965;28;19928;-77
2023/12/07 06:47:38;;;;;;;;;;;;;;;-1.89;100.00;101640.72;5158912;23;19997;-76
2023/12/07 06:50:04;;;;;;;;;;;;;;;-1.73;100.00;101629.19;5032614;28;19993;-76
2023/12/07 06:52:29;;;;;;;;;;;;;;;-1.82;100.00;101633.25;5020526;28;19921;-76
2023/12/07 06:54:54;;;;;;;;;;;;;;;-1.84;100.00;101643.06;5017777;28;19922;-77
2023/12/07 06:57:21;;;;;;;;;;;;;;;-1.74;100.00;101638.88;5016414;28;19922;-76
2023/12/07 06:59:52;;;;;;;;;;;;;;;-1.64;100.00;101628.59;5016351;28;19921;-77
2023/12/07 07:02:17;;;;;;;;;;;;;;;-1.63;100.00;101626.81;5016065;28;19921;-76
2023/12/07 07:04:44;;;;;;;;;;;;;;;-1.73;100.00;101629.19;5016280;28;20323;-76
2023/12/07 07:07:09;;;;;;;;;;;;;;;-1.68;100.00;101627.94;5019387;28;19925;-76
2023/12/07 07:09:40;;;;;;;;;;;;;;;-1.69;100.00;101620.97;5021332;28;19932;-75
2023/12/07 07:12:05;;;;;;;;;;;;;;;-1.61;100.00;101625.75;5020636;28;19989;-76
2023/12/07 07:14:31;;;;;;;;;;;;;;;-1.68;100.00;101622.66;5027114;28;19926;-76
2023/12/07 07:16:56;;;;;;;;;;;;;;;-1.53;100.00;101626.13;5018486;28;19929;-76
2023/12/07 07:19:21;;;;;;;;;;;;;;;-1.52;100.00;101632.25;5021300;28;20269;-77
2023/12/07 07:21:46;;;;;;;;;;;;;;;-1.51;100.00;101636.56;5017916;28;19922;-77
2023/12/07 07:24:11;;;;;;;;;;;;;;;-1.56;100.00;101634.25;5016427;28;20332;-78
2023/12/07 07:26:37;;;;;;;;;;;;;;;-1.47;100.00;101630.16;5015480;28;20407;-77
2023/12/07 07:29:03;;;;;;;;;;;;;;;-1.41;100.00;101628.91;5014229;28;20285;-79
2023/12/07 07:31:34;;;;;;;;;;;;;;;-1.45;100.00;101630.91;5014987;28;19922;-83
2023/12/07 07:33:59;;;;;;;;;;;;;;;-1.46;100.00;101631.84;4986048;28;20060;-81
2023/12/07 07:36:27;;;;;;;;;;;;;;;-1.48;100.00;101628.47;5013790;28;20013;-79
2023/12/07 07:38:53;;;;;;;;;;;;;;;-1.44;100.00;101634.38;5015390;28;19961;-82
2023/12/07 07:41:18;;;;;;;;;;;;;;;-1.48;100.00;101636.38;5019737;23;19965;-80
2023/12/07 07:43:43;;;;;;;;;;;;;;;-1.54;100.00;101642.03;5012736;28;19922;-76
2023/12/07 07:46:08;;;;;;;;;;;;;;;-1.65;100.00;101644.53;5013850;28;19922;-80
2023/12/07 07:48:34;;;;;;;;;;;;;;;-1.70;100.00;101639.56;5008781;28;19932;-80
2023/12/07 07:50:59;;;;;;;;;;;;;;;-1.73;100.00;101647.66;5012550;28;19957;-80
2023/12/07 07:53:24;;;;;;;;;;;;;;;-1.70;100.00;101648.31;5011347;28;19971;-80
2023/12/07 07:55:49;;;;;;;;;;;;;;;-1.66;100.00;101642.84;5010573;28;19936;-78
2023/12/07 07:58:14;;;;;;;;;;;;;;;-1.61;100.00;101641.59;5011513;28;19937;-80
2023/12/07 08:00:45;;;;;;;;;;;;;;;-1.65;100.00;101647.19;5005509;28;20281;-80
2023/12/07 08:03:11;;;;;;;;;;;;;;;-1.62;100.00;101647.00;5010840;28;20107;-79
2023/12/07 08:05:37;;;;;;;;;;;;;;;-1.59;100.00;101641.53;5011210;28;19945;-80
2023/12/07 08:08:02;;;;;;;;;;;;;;;-1.57;100.00;101644.88;5009736;28;19925;-82
2023/12/07 08:10:27;;;;;;;;;;;;;;;-1.58;100.00;101653.75;5010178;28;19932;-81
2023/12/07 08:12:52;;;;;;;;;;;;;;;-1.55;100.00;101653.56;5011213;28;19925;-79
2023/12/07 08:15:18;;;;;;;;;;;;;;;-1.48;100.00;101654.88;5011675;28;20055;-79
2023/12/07 08:17:43;;;;;;;;;;;;;;;-1.48;100.00;101656.66;5008691;28;19929;-80
2023/12/07 08:20:12;;;;;;;;;;;;;;;-1.50;100.00;101661.22;5010944;28;19938;-79
2023/12/07 08:22:38;;;;;;;;;;;;;;;-1.50;100.00;101659.41;5006278;28;19922;-80
2023/12/07 08:25:05;;;;;;;;;;;;;;;-1.55;100.00;101664.97;5011001;28;19926;-78
2023/12/07 08:27:30;;;;;;;;;;;;;;;-1.48;100.00;101669.84;5012318;28;19928;-79
2023/12/07 08:29:55;;;;;;;;;;;;;;;-1.56;100.00;101670.34;5012880;28;19925;-78
2023/12/07 08:32:21;;;;;;;;;;;;;;;-1.51;100.00;101654.22;5292739;23;19913;-78
2023/12/07 08:34:46;;;;;;;;;;;;;;;-1.51;100.00;101665.63;4972806;28;19961;-78
2023/12/07 08:37:14;;;;;;;;;;;;;;;-1.54;100.00;101660.53;4970852;28;20119;-78
2023/12/07 08:39:39;;;;;;;;;;;;;;;-1.61;100.00;101665.34;4971513;28;19926;-78
2023/12/07 08:42:04;;;;;;;;;;;;;;;-1.56;100.00;101662.41;4972630;28;19976;-78
2023/12/07 08:44:30;;;;;;;;;;;;;;;-1.58;100.00;101659.88;4973192;28;19925;-78
2023/12/07 08:46:55;;;;;;;;;;;;;;;-1.53;100.00;101655.19;4971983;28;19933;-78
2023/12/07 08:49:20;;;;;;;;;;;;;;;-1.49;100.00;101658.47;4972528;28;20457;-78
2023/12/07 08:51:45;;;;;;;;;;;;;;;-1.50;100.00;101666.50;4973103;28;19922;-78
2023/12/07 08:54:11;;;;;;;;;;;;;;;-1.46;100.00;101655.63;4972361;28;19944;-78
2023/12/07 08:56:37;;;;;;;;;;;;;;;-1.41;100.00;101652.69;4973276;28;19922;-78
2023/12/07 08:59:02;;;;;;;;;;;;;;;-1.41;100.00;101656.16;4973446;28;20542;-78
2023/12/07 09:01:32;;;;;;;;;;;;;;;-1.37;100.00;101668.22;4971674;28;19930;-78
2023/12/07 09:03:58;;;;;;;;;;;;;;;-1.37;100.00;101659.47;4972242;28;19945;-78
2023/12/07 09:06:23;;;;;;;;;;;;;;;-1.38;100.00;101663.06;4973489;28;20350;-78
2023/12/07 09:08:49;;;;;;;;;;;;;;;-1.35;100.00;101660.22;4973335;28;20402;-77
2023/12/07 09:11:14;;;;;;;;;;;;;;;-1.33;100.00;101663.63;4970614;28;19983;-77
2023/12/07 09:13:40;;;;;;;;;;;;;;;-1.33;100.00;101646.91;4972697;28;19925;-78
2023/12/07 09:16:05;;;;;;;;;;;;;;;-1.31;100.00;101655.56;4974006;28;20281;-77
2023/12/07 09:18:30;;;;;;;;;;;;;;;-1.28;100.00;101650.09;4973930;28;19977;-79
2023/12/07 09:20:55;;;;;;;;;;;;;;;-1.26;100.00;101653.50;4976563;28;19981;-78
2023/12/07 09:23:21;;;;;;;;;;;;;;;-1.19;100.00;101657.41;4975416;28;20121;-78
2023/12/07 09:25:46;;;;;;;;;;;;;;;-1.23;100.00;101655.91;4976072;28;19926;-78
2023/12/07 09:28:11;;;;;;;;;;;;;;;-1.19;100.00;101664.50;4977884;28;19926;-78
2023/12/07 09:30:36;;;;;;;;;;;;;;;-1.23;100.00;101664.69;4979809;28;19953;-77
2023/12/07 09:33:05;;;;;;;;;;;;;;;-1.26;100.00;101653.50;4979547;28;20024;-77
2023/12/07 09:35:30;;;;;;;;;;;;;;;-1.23;100.00;101653.28;4985611;28;19922;-78
2023/12/07 09:37:55;;;;;;;;;;;;;;;-1.19;100.00;101641.56;4990234;28;19926;-78
2023/12/07 09:40:21;;;;;;;;;;;;;;;-1.18;100.00;101653.00;4982058;28;19926;-77
2023/12/07 09:42:47;;;;;;;;;;;;;;;-1.24;100.00;101641.88;4980089;28;19964;-78
2023/12/07 09:45:13;;;;;;;;;;;;;;;-1.19;100.00;101638.91;4976521;28;19929;-77
2023/12/07 09:47:39;;;;;;;;;;;;;;;-1.14;100.00;101647.41;4974785;28;20454;-78
2023/12/07 09:50:08;;;;;;;;;;;;;;;-1.15;100.00;101642.22;4956346;28;19934;-77
2023/12/07 09:52:33;;;;;;;;;;;;;;;-1.08;100.00;101647.00;4973876;28;19926;-78
2023/12/07 09:54:58;;;;;;;;;;;;;;;-0.95;100.00;101638.25;4974362;28;19922;-77
2023/12/07 09:57:30;;;;;;;;;;;;;;;-1.06;100.00;101636.31;5676608;23;19914;-78
2023/12/07 09:59:55;;;;;;;;;;;;;;;-0.98;100.00;101630.53;4975124;28;19937;-77
2023/12/07 10:02:21;;;;;;;;;;;;;;;-0.94;100.00;101627.56;4990554;28;19914;-78
2023/12/07 10:04:47;;;;;;;;;;;;;;;-1.04;100.00;101628.28;4980753;28;19926;-77
2023/12/07 10:07:13;;;;;;;;;;;;;;;-0.90;100.00;101630.88;5504512;22;19966;-78
2023/12/07 10:09:39;;;;;;;;;;;;;;;-0.82;100.00;101633.84;5013930;28;19929;-77
2023/12/07 10:12:07;;;;;;;;;;;;;;;-0.76;100.00;101614.06;5013381;28;20036;-78
2023/12/07 10:14:35;;;;;;;;;;;;;;;-0.73;100.00;101613.03;5013149;28;19967;-78
2023/12/07 10:17:01;;;;;;;;;;;;;;;-0.71;100.00;101611.13;5013326;28;19925;-79
2023/12/07 10:19:27;;;;;;;;;;;;;;;-0.68;100.00;101613.53;5014301;28;19952;-79
2023/12/07 10:21:52;;;;;;;;;;;;;;;-0.67;100.00;101612.59;5014313;28;20021;-79
2023/12/07 10:24:20;;;;;;;;;;;;;;;-0.57;100.00;101618.09;5013107;28;19949;-80
2023/12/07 10:26:46;;;;;;;;;;;;;;;-0.60;100.00;101613.88;5009764;28;20368;-77
2023/12/07 10:34:52;;;;;;;;;;;;;;;-0.65;100.00;101603.63;5142060;22;19933;-78
2023/12/07 10:37:18;;;;;;;;;;;;;;;-0.61;100.00;101598.97;5014160;28;19995;-78
2023/12/07 10:39:43;;;;;;;;;;;;;;;-0.54;100.00;101597.59;5311728;22;20455;-78
2023/12/07 10:42:09;;;;;;;;;;;;;;;-0.47;100.00;101590.91;5015940;28;20448;-78
2023/12/07 10:44:35;;;;;;;;;;;;;;;-0.30;100.00;101588.88;5012785;28;20079;-77
2023/12/07 10:49:28;;;;;;;;;;;;;;;-0.31;100.00;101580.13;5069127;22;20411;-77
2023/12/07 10:51:59;;;;;;;;;;;;;;;-0.38;100.00;101567.44;5028413;28;20170;-77
2023/12/07 10:54:24;;;;;;;;;;;;;;;-0.41;100.00;101575.56;5010473;28;20391;-76
2023/12/07 10:56:50;;;;;;;;;;;;;;;-0.47;100.00;101567.09;4995457;28;19921;-77
2023/12/07 10:59:15;;;;;;;;;;;;;;;-0.42;100.00;101568.59;4994423;28;20023;-77
2023/12/07 11:01:42;;;;;;;;;;;;;;;-0.31;100.00;101572.19;5012400;28;20023;-79
2023/12/07 11:04:08;;;;;;;;;;;;;;;-0.23;100.00;101566.34;5012275;28;20288;-78
2023/12/07 11:06:33;;;;;;;;;;;;;;;-0.20;100.00;101566.13;5018909;28;19921;-79
2023/12/07 11:08:59;;;;;;;;;;;;;;;-0.14;100.00;101556.03;4993994;28;20082;-77
2023/12/07 11:11:25;;;;;;;;;;;;;;;-0.17;100.00;101550.00;5021776;28;19922;-77
2023/12/07 11:13:54;;;;;;;;;;;;;;;-0.18;100.00;101537.75;4991750;28;19921;-77
2023/12/07 11:16:28;;;;;;;;;;;;;;;-0.26;100.00;101534.81;5011402;28;19921;-78
2023/12/07 11:18:53;;;;;;;;;;;;;;;-0.08;100.00;101537.09;5011062;28;19925;-78
2023/12/07 11:21:19;;;;;;;;;;;;;;;-0.04;100.00;101525.34;5010589;28;19921;-78
2023/12/07 11:23:44;;;;;;;;;;;;;;;-0.02;100.00;101520.78;4993757;28;19937;-77
2023/12/07 11:26:09;;;;;;;;;;;;;;;0.01;100.00;101517.06;4994054;28;19925;-77
2023/12/07 11:28:35;;;;;;;;;;;;;;;0.21;100.00;101512.94;5013467;28;19933;-78
2023/12/07 11:31:01;;;;;;;;;;;;;;;0.23;100.00;101517.19;5008100;28;19925;-77
2023/12/07 11:33:26;;;;;;;;;;;;;;;0.35;100.00;101510.16;5010708;28;19929;-76
2023/12/07 11:36:18;;;;;;;;;;;;;;;0.47;100.00;101503.06;5013135;28;19933;-77
2023/12/07 11:39:15;;;;;;;;;;;;;;;0.48;100.00;101494.16;5006413;28;19944;-77
2023/12/07 11:41:42;;;;;;;;;;;;;;;0.36;100.00;101495.91;5005408;28;19921;-76
2023/12/07 11:44:07;;;;;;;;;;;;;;;0.58;100.00;101483.72;5011533;28;20357;-77
2023/12/07 11:46:34;;;;;;;;;;;;;;;0.67;100.00;101479.53;5017551;28;20326;-78
2023/12/07 11:48:59;;;;;;;;;;;;;;;0.69;100.00;101481.13;5010954;28;20257;-78
2023/12/07 11:51:25;;;;;;;;;;;;;;;0.86;100.00;101466.56;4993889;28;20364;-78
2023/12/07 11:53:51;;;;;;;;;;;;;;;0.90;100.00;101472.47;5010148;28;20427;-77
2023/12/07 11:56:20;;;;;;;;;;;;;;;1.01;100.00;101472.50;5011238;28;19953;-78
2023/12/07 11:58:45;;;;;;;;;;;;;;;1.05;100.00;101471.31;4993998;28;19921;-78
2023/12/07 12:01:10;;;;;;;;;;;;;;;0.95;100.00;101465.00;4993866;28;20004;-77
2023/12/07 12:03:36;;;;;;;;;;;;;;;1.01;100.00;101467.19;5011099;28;19965;-78
2023/12/07 12:06:05;;;;;;;;;;;;;;;1.11;100.00;101461.16;5010629;28;20272;-77
2023/12/07 12:08:30;;;;;;;;;;;;;;;1.18;100.00;101463.22;5011072;28;20020;-78
2023/12/07 12:10:58;;;;;;;;;;;;;;;1.32;100.00;101459.47;5011313;28;19952;-78
2023/12/07 12:13:26;;;;;;;;;;;;;;;1.32;100.00;101467.44;5011030;28;20290;-77
2023/12/07 12:15:51;;;;;;;;;;;;;;;1.39;100.00;101466.97;5012426;28;19968;-78
2023/12/07 12:18:16;;;;;;;;;;;;;;;1.33;100.00;101452.34;5018042;28;20348;-78
2023/12/07 12:20:43;;;;;;;;;;;;;;;1.11;100.00;101447.91;5012362;28;20308;-78
2023/12/07 12:23:08;;;;;;;;;;;;;;;1.27;100.00;101442.25;4994040;28;20004;-78
2023/12/07 12:25:34;;;;;;;;;;;;;;;1.33;100.00;101445.25;5010975;28;20071;-78
2023/12/07 12:28:02;;;;;;;;;;;;;;;1.54;100.00;101449.81;5018317;28;20366;-78
2023/12/07 12:30:28;;;;;;;;;;;;;;;1.55;100.00;101446.19;5011037;28;20216;-78
2023/12/07 12:32:53;;;;;;;;;;;;;;;1.57;100.00;101433.66;5025567;28;20218;-78
2023/12/07 12:35:19;;;;;;;;;;;;;;;1.45;100.00;101431.97;5010427;28;19929;-78
2023/12/07 12:37:44;;;;;;;;;;;;;;;1.60;100.00;101419.28;5010617;28;19972;-78
2023/12/07 12:40:15;;;;;;;;;;;;;;;1.58;100.00;101414.13;5010852;28;20016;-77
2023/12/07 12:42:40;;;;;;;;;;;;;;;1.67;100.00;101412.53;5015251;28;19928;-78
2023/12/07 12:45:08;;;;;;;;;;;;;;;1.61;100.00;101413.00;5010830;28;19921;-78
2023/12/07 12:47:33;;;;;;;;;;;;;;;1.56;100.00;101413.41;5001773;28;20400;-78
2023/12/07 12:49:59;;;;;;;;;;;;;;;1.59;100.00;101410.47;5011062;28;19921;-77
2023/12/07 12:52:26;;;;;;;;;;;;;;;1.74;100.00;101402.25;5009825;28;20361;-78
2023/12/07 12:54:51;;;;;;;;;;;;;;;1.70;100.00;101395.50;5011568;28;19922;-78
2023/12/07 12:57:17;;;;;;;;;;;;;;;1.72;100.00;101394.41;5011751;28;19928;-78
2023/12/07 12:59:42;;;;;;;;;;;;;;;1.55;100.00;101398.44;4994304;28;20001;-77
2023/12/07 13:02:09;;;;;;;;;;;;;;;1.71;100.00;101397.19;4995585;28;20391;-77
2023/12/07 13:04:34;;;;;;;;;;;;;;;1.72;100.00;101393.56;5014203;28;20297;-78
2023/12/07 13:07:02;;;;;;;;;;;;;;;1.78;100.00;101390.38;5032468;23;19948;-77
2023/12/07 13:09:52;;;;;;;;;;;;;;;1.66;100.00;101382.47;5013307;28;19921;-77
2023/12/07 13:12:17;;;;;;;;;;;;;;;1.71;100.00;101384.75;5017701;28;19922;-77
2023/12/07 13:14:42;;;;;;;;;;;;;;;1.76;100.00;101384.38;5016104;28;19986;-77
2023/12/07 13:17:07;;;;;;;;;;;;;;;1.73;100.00;101376.69;5013476;28;20155;-77
2023/12/07 13:19:33;;;;;;;;;;;;;;;1.72;100.00;101373.16;5011134;28;19952;-78
2023/12/07 13:21:58;;;;;;;;;;;;;;;1.71;100.00;101365.34;5009337;28;20012;-78
2023/12/07 13:24:23;;;;;;;;;;;;;;;1.77;100.00;101367.47;5011776;28;19928;-77
2023/12/07 13:26:48;;;;;;;;;;;;;;;1.90;100.00;101376.13;5011939;28;20373;-78
2023/12/07 13:29:14;;;;;;;;;;;;;;;2.05;100.00;101373.16;5009623;28;20369;-77
2023/12/07 13:31:39;;;;;;;;;;;;;;;1.97;100.00;101377.28;5010305;28;20391;-77
2023/12/07 13:34:04;;;;;;;;;;;;;;;2.04;100.00;101376.78;5010843;28;20000;-77
2023/12/07 13:36:31;;;;;;;;;;;;;;;2.08;100.00;101376.38;5014028;28;20387;-78
2023/12/07 13:38:56;;;;;;;;;;;;;;;2.07;100.00;101363.25;5015044;28;19956;-78
2023/12/07 13:41:22;;;;;;;;;;;;;;;2.11;100.00;101362.03;5015079;28;20365;-78
2023/12/07 13:43:48;;;;;;;;;;;;;;;2.23;100.00;101362.78;5010955;28;19926;-77
2023/12/07 13:46:13;;;;;;;;;;;;;;;2.33;100.00;101361.06;5011144;28;20389;-77